sensor_id;sensor_type;location;lat;lon;timestamp;P1;durP1;ratioP1;P2;durP2;ratioP2
5742;SDS011;2896;53.500;10.020;2022-08-01T00:01:23;21.73;;;19.53;;
5742;SDS011;2896;53.500;10.020;2022-08-01T00:03:50;18.47;;;16.33;;
5742;SDS011;2896;53.500;10.020;2022-08-01T00:06:18;27.63;;;19.10;;
5742;SDS011;2896;53.500;10.020;2022-08-01T00:08:44;19.87;;;17.77;;
5742;SDS011;2896;53.500;10.020;2022-08-01T00:11:11;25.80;;;19.47;;
5742;SDS011;2896;53.500;10.020;2022-08-01T00:13:38;25.00;;;20.37;;
5742;SDS011;2896;53.500;10.020;2022-08-01T00:16:05;21.70;;;19.50;;
5742;SDS011;2896;53.500;10.020;2022-08-01T00:18:32;22.47;;;17.30;;
5742;SDS011;2896;53.500;10.020;2022-08-01T00:20:59;29.80;;;18.20;;
5742;SDS011;2896;53.500;10.020;2022-08-01T00:23:27;20.13;;;17.90;;
5742;SDS011;2896;53.500;10.020;2022-08-01T00:25:54;24.50;;;17.40;;
5742;SDS011;2896;53.500;10.020;2022-08-01T00:28:20;13.80;;;12.50;;
5742;SDS011;2896;53.500;10.020;2022-08-01T00:30:47;20.10;;;16.50;;
5742;SDS011;2896;53.500;10.020;2022-08-01T00:33:14;20.57;;;16.70;;
5742;SDS011;2896;53.500;10.020;2022-08-01T00:35:40;17.97;;;15.00;;
5742;SDS011;2896;53.500;10.020;2022-08-01T00:38:07;26.97;;;15.20;;
5742;SDS011;2896;53.500;10.020;2022-08-01T00:40:35;26.87;;;14.90;;
5742;SDS011;2896;53.500;10.020;2022-08-01T00:43:01;20.27;;;13.63;;
5742;SDS011;2896;53.500;10.020;2022-08-01T00:45:28;16.57;;;13.33;;
5742;SDS011;2896;53.500;10.020;2022-08-01T00:47:55;26.23;;;15.63;;
5742;SDS011;2896;53.500;10.020;2022-08-01T00:50:21;22.10;;;17.17;;
5742;SDS011;2896;53.500;10.020;2022-08-01T00:52:48;46.97;;;19.67;;
5742;SDS011;2896;53.500;10.020;2022-08-01T00:55:16;25.63;;;18.70;;
5742;SDS011;2896;53.500;10.020;2022-08-01T00:57:46;22.67;;;17.50;;
5742;SDS011;2896;53.500;10.020;2022-08-01T01:00:14;19.83;;;17.63;;
5742;SDS011;2896;53.500;10.020;2022-08-01T01:02:41;21.97;;;16.23;;
5742;SDS011;2896;53.500;10.020;2022-08-01T01:05:08;24.70;;;15.07;;
5742;SDS011;2896;53.500;10.020;2022-08-01T01:07:36;31.00;;;16.00;;
5742;SDS011;2896;53.500;10.020;2022-08-01T01:10:11;36.53;;;14.93;;
5742;SDS011;2896;53.500;10.020;2022-08-01T01:12:44;20.60;;;15.60;;
5742;SDS011;2896;53.500;10.020;2022-08-01T01:15:15;18.63;;;14.47;;
5742;SDS011;2896;53.500;10.020;2022-08-01T01:17:48;17.20;;;14.93;;
5742;SDS011;2896;53.500;10.020;2022-08-01T01:20:21;23.70;;;12.93;;
5742;SDS011;2896;53.500;10.020;2022-08-01T01:22:59;13.97;;;12.47;;
5742;SDS011;2896;53.500;10.020;2022-08-01T01:25:58;14.20;;;12.70;;
5742;SDS011;2896;53.500;10.020;2022-08-01T01:28:40;23.03;;;12.90;;
5742;SDS011;2896;53.500;10.020;2022-08-01T01:31:21;24.97;;;12.73;;
5742;SDS011;2896;53.500;10.020;2022-08-01T01:33:51;13.50;;;12.10;;
5742;SDS011;2896;53.500;10.020;2022-08-01T01:36:19;15.63;;;11.67;;
5742;SDS011;2896;53.500;10.020;2022-08-01T01:38:48;19.43;;;11.93;;
5742;SDS011;2896;53.500;10.020;2022-08-01T01:41:18;24.07;;;11.10;;
5742;SDS011;2896;53.500;10.020;2022-08-01T01:43:46;17.50;;;12.53;;
5742;SDS011;2896;53.500;10.020;2022-08-01T01:46:17;14.27;;;12.70;;
5742;SDS011;2896;53.500;10.020;2022-08-01T01:48:48;16.93;;;14.00;;
5742;SDS011;2896;53.500;10.020;2022-08-01T01:51:16;14.87;;;13.10;;
5742;SDS011;2896;53.500;10.020;2022-08-01T01:53:44;19.97;;;14.53;;
5742;SDS011;2896;53.500;10.020;2022-08-01T01:56:12;21.03;;;13.60;;
5742;SDS011;2896;53.500;10.020;2022-08-01T01:58:42;25.33;;;13.63;;
5742;SDS011;2896;53.500;10.020;2022-08-01T02:01:10;14.43;;;10.40;;
5742;SDS011;2896;53.500;10.020;2022-08-01T02:03:39;20.13;;;13.87;;
5742;SDS011;2896;53.500;10.020;2022-08-01T02:06:06;16.60;;;12.77;;
5742;SDS011;2896;53.500;10.020;2022-08-01T02:08:34;20.50;;;13.40;;
5742;SDS011;2896;53.500;10.020;2022-08-01T02:11:03;19.90;;;12.77;;
5742;SDS011;2896;53.500;10.020;2022-08-01T02:13:48;19.10;;;13.07;;
5742;SDS011;2896;53.500;10.020;2022-08-01T02:16:18;15.43;;;11.10;;
5742;SDS011;2896;53.500;10.020;2022-08-01T02:18:50;19.13;;;13.33;;
5742;SDS011;2896;53.500;10.020;2022-08-01T02:21:18;14.93;;;11.40;;
5742;SDS011;2896;53.500;10.020;2022-08-01T02:23:51;16.37;;;11.50;;
5742;SDS011;2896;53.500;10.020;2022-08-01T02:26:18;14.13;;;10.80;;
5742;SDS011;2896;53.500;10.020;2022-08-01T02:28:49;14.07;;;11.07;;
5742;SDS011;2896;53.500;10.020;2022-08-01T02:31:20;15.53;;;10.90;;
5742;SDS011;2896;53.500;10.020;2022-08-01T02:33:51;15.37;;;11.37;;
5742;SDS011;2896;53.500;10.020;2022-08-01T02:36:22;14.67;;;10.53;;
5742;SDS011;2896;53.500;10.020;2022-08-01T02:38:52;21.50;;;9.70;;
5742;SDS011;2896;53.500;10.020;2022-08-01T02:41:21;11.33;;;10.03;;
5742;SDS011;2896;53.500;10.020;2022-08-01T02:43:52;14.47;;;10.23;;
5742;SDS011;2896;53.500;10.020;2022-08-01T02:46:24;13.03;;;9.20;;
5742;SDS011;2896;53.500;10.020;2022-08-01T02:48:55;10.50;;;8.47;;
5742;SDS011;2896;53.500;10.020;2022-08-01T02:51:25;8.80;;;7.47;;
5742;SDS011;2896;53.500;10.020;2022-08-01T02:53:53;11.10;;;8.40;;
5742;SDS011;2896;53.500;10.020;2022-08-01T02:56:20;9.80;;;8.83;;
5742;SDS011;2896;53.500;10.020;2022-08-01T02:58:48;13.30;;;9.73;;
5742;SDS011;2896;53.500;10.020;2022-08-01T03:01:16;16.10;;;9.93;;
5742;SDS011;2896;53.500;10.020;2022-08-01T03:03:44;12.50;;;9.40;;
5742;SDS011;2896;53.500;10.020;2022-08-01T03:06:13;11.53;;;9.70;;
5742;SDS011;2896;53.500;10.020;2022-08-01T03:08:40;15.73;;;9.30;;
5742;SDS011;2896;53.500;10.020;2022-08-01T03:11:08;11.77;;;8.50;;
5742;SDS011;2896;53.500;10.020;2022-08-01T03:13:36;15.00;;;9.50;;
5742;SDS011;2896;53.500;10.020;2022-08-01T03:16:04;9.80;;;8.80;;
5742;SDS011;2896;53.500;10.020;2022-08-01T03:18:31;14.10;;;9.13;;
5742;SDS011;2896;53.500;10.020;2022-08-01T03:20:59;14.47;;;9.40;;
5742;SDS011;2896;53.500;10.020;2022-08-01T03:23:28;15.27;;;8.70;;
5742;SDS011;2896;53.500;10.020;2022-08-01T03:25:58;11.83;;;8.00;;
5742;SDS011;2896;53.500;10.020;2022-08-01T03:28:28;8.43;;;7.73;;
5742;SDS011;2896;53.500;10.020;2022-08-01T03:30:57;10.30;;;7.67;;
5742;SDS011;2896;53.500;10.020;2022-08-01T03:33:24;21.77;;;9.13;;
5742;SDS011;2896;53.500;10.020;2022-08-01T03:35:52;15.87;;;8.20;;
5742;SDS011;2896;53.500;10.020;2022-08-01T03:38:21;9.47;;;8.20;;
5742;SDS011;2896;53.500;10.020;2022-08-01T03:40:53;10.93;;;8.17;;
5742;SDS011;2896;53.500;10.020;2022-08-01T03:43:25;11.93;;;7.83;;
5742;SDS011;2896;53.500;10.020;2022-08-01T03:45:56;7.40;;;6.67;;
5742;SDS011;2896;53.500;10.020;2022-08-01T03:48:29;6.90;;;6.17;;
5742;SDS011;2896;53.500;10.020;2022-08-01T03:51:01;7.43;;;6.00;;
5742;SDS011;2896;53.500;10.020;2022-08-01T03:53:30;13.40;;;6.50;;
5742;SDS011;2896;53.500;10.020;2022-08-01T03:55:59;14.70;;;6.27;;
5742;SDS011;2896;53.500;10.020;2022-08-01T03:58:28;9.77;;;6.00;;
5742;SDS011;2896;53.500;10.020;2022-08-01T04:00:55;13.87;;;5.90;;
5742;SDS011;2896;53.500;10.020;2022-08-01T04:03:22;4.80;;;4.40;;
5742;SDS011;2896;53.500;10.020;2022-08-01T04:05:50;6.00;;;5.47;;
5742;SDS011;2896;53.500;10.020;2022-08-01T04:08:16;6.50;;;4.50;;
5742;SDS011;2896;53.500;10.020;2022-08-01T04:10:43;11.97;;;5.33;;
5742;SDS011;2896;53.500;10.020;2022-08-01T04:13:11;8.30;;;4.67;;
5742;SDS011;2896;53.500;10.020;2022-08-01T04:15:37;4.70;;;4.30;;
5742;SDS011;2896;53.500;10.020;2022-08-01T04:18:04;7.17;;;4.63;;
5742;SDS011;2896;53.500;10.020;2022-08-01T04:20:31;4.50;;;4.10;;
5742;SDS011;2896;53.500;10.020;2022-08-01T04:22:58;5.10;;;4.60;;
5742;SDS011;2896;53.500;10.020;2022-08-01T04:25:26;4.43;;;3.80;;
5742;SDS011;2896;53.500;10.020;2022-08-01T04:27:57;6.33;;;4.00;;
5742;SDS011;2896;53.500;10.020;2022-08-01T04:30:31;9.33;;;5.93;;
5742;SDS011;2896;53.500;10.020;2022-08-01T04:33:00;24.80;;;6.60;;
5742;SDS011;2896;53.500;10.020;2022-08-01T04:35:30;8.37;;;5.90;;
5742;SDS011;2896;53.500;10.020;2022-08-01T04:37:58;7.13;;;5.87;;
5742;SDS011;2896;53.500;10.020;2022-08-01T04:40:27;9.80;;;7.10;;
5742;SDS011;2896;53.500;10.020;2022-08-01T04:42:54;7.20;;;6.50;;
5742;SDS011;2896;53.500;10.020;2022-08-01T04:45:21;19.33;;;6.47;;
5742;SDS011;2896;53.500;10.020;2022-08-01T04:47:49;5.30;;;4.80;;
5742;SDS011;2896;53.500;10.020;2022-08-01T04:50:17;13.30;;;5.50;;
5742;SDS011;2896;53.500;10.020;2022-08-01T04:52:46;5.40;;;4.90;;
5742;SDS011;2896;53.500;10.020;2022-08-01T04:55:13;7.90;;;5.10;;
5742;SDS011;2896;53.500;10.020;2022-08-01T04:57:42;11.83;;;4.50;;
5742;SDS011;2896;53.500;10.020;2022-08-01T05:00:11;18.57;;;5.30;;
5742;SDS011;2896;53.500;10.020;2022-08-01T05:02:38;17.10;;;4.87;;
5742;SDS011;2896;53.500;10.020;2022-08-01T05:05:07;16.80;;;5.10;;
5742;SDS011;2896;53.500;10.020;2022-08-01T05:07:35;6.00;;;4.17;;
5742;SDS011;2896;53.500;10.020;2022-08-01T05:10:02;4.60;;;3.10;;
5742;SDS011;2896;53.500;10.020;2022-08-01T05:12:29;10.23;;;3.90;;
5742;SDS011;2896;53.500;10.020;2022-08-01T05:14:57;23.97;;;3.67;;
5742;SDS011;2896;53.500;10.020;2022-08-01T05:17:23;6.60;;;2.40;;
5742;SDS011;2896;53.500;10.020;2022-08-01T05:19:50;9.30;;;2.80;;
5742;SDS011;2896;53.500;10.020;2022-08-01T05:22:18;3.53;;;3.33;;
5742;SDS011;2896;53.500;10.020;2022-08-01T05:24:45;10.93;;;2.93;;
5742;SDS011;2896;53.500;10.020;2022-08-01T05:27:12;2.63;;;2.53;;
5742;SDS011;2896;53.500;10.020;2022-08-01T05:29:38;5.13;;;2.83;;
5742;SDS011;2896;53.500;10.020;2022-08-01T05:32:06;4.73;;;3.63;;
5742;SDS011;2896;53.500;10.020;2022-08-01T05:34:32;3.90;;;3.53;;
5742;SDS011;2896;53.500;10.020;2022-08-01T05:36:59;7.20;;;3.60;;
5742;SDS011;2896;53.500;10.020;2022-08-01T05:39:28;4.00;;;3.80;;
5742;SDS011;2896;53.500;10.020;2022-08-01T05:41:54;3.97;;;3.77;;
5742;SDS011;2896;53.500;10.020;2022-08-01T05:44:21;4.93;;;4.07;;
5742;SDS011;2896;53.500;10.020;2022-08-01T05:46:48;5.20;;;4.70;;
5742;SDS011;2896;53.500;10.020;2022-08-01T05:49:14;4.77;;;4.57;;
5742;SDS011;2896;53.500;10.020;2022-08-01T05:51:41;6.33;;;5.57;;
5742;SDS011;2896;53.500;10.020;2022-08-01T05:54:07;6.57;;;5.03;;
5742;SDS011;2896;53.500;10.020;2022-08-01T05:56:35;7.17;;;6.20;;
5742;SDS011;2896;53.500;10.020;2022-08-01T05:59:02;6.50;;;6.00;;
5742;SDS011;2896;53.500;10.020;2022-08-01T06:01:29;7.47;;;6.97;;
5742;SDS011;2896;53.500;10.020;2022-08-01T06:03:55;9.47;;;7.63;;
5742;SDS011;2896;53.500;10.020;2022-08-01T06:06:22;8.20;;;7.40;;
5742;SDS011;2896;53.500;10.020;2022-08-01T06:08:49;7.30;;;6.80;;
5742;SDS011;2896;53.500;10.020;2022-08-01T06:11:16;7.77;;;7.20;;
5742;SDS011;2896;53.500;10.020;2022-08-01T06:13:44;7.20;;;6.70;;
5742;SDS011;2896;53.500;10.020;2022-08-01T06:16:11;7.47;;;6.60;;
5742;SDS011;2896;53.500;10.020;2022-08-01T06:18:38;6.53;;;5.50;;
5742;SDS011;2896;53.500;10.020;2022-08-01T06:21:04;4.47;;;4.17;;
5742;SDS011;2896;53.500;10.020;2022-08-01T06:23:31;10.13;;;5.80;;
5742;SDS011;2896;53.500;10.020;2022-08-01T06:25:58;11.80;;;5.27;;
5742;SDS011;2896;53.500;10.020;2022-08-01T06:28:25;20.50;;;6.30;;
5742;SDS011;2896;53.500;10.020;2022-08-01T06:30:53;9.97;;;5.37;;
5742;SDS011;2896;53.500;10.020;2022-08-01T06:33:19;10.27;;;5.67;;
5742;SDS011;2896;53.500;10.020;2022-08-01T06:35:46;8.97;;;5.80;;
5742;SDS011;2896;53.500;10.020;2022-08-01T06:38:13;6.73;;;6.13;;
5742;SDS011;2896;53.500;10.020;2022-08-01T06:40:40;8.40;;;6.13;;
5742;SDS011;2896;53.500;10.020;2022-08-01T06:43:06;12.80;;;6.53;;
5742;SDS011;2896;53.500;10.020;2022-08-01T06:45:33;7.90;;;6.00;;
5742;SDS011;2896;53.500;10.020;2022-08-01T06:48:03;10.70;;;5.00;;
5742;SDS011;2896;53.500;10.020;2022-08-01T06:50:30;5.33;;;4.80;;
5742;SDS011;2896;53.500;10.020;2022-08-01T06:52:57;9.37;;;4.90;;
5742;SDS011;2896;53.500;10.020;2022-08-01T06:55:23;5.70;;;4.33;;
5742;SDS011;2896;53.500;10.020;2022-08-01T06:57:51;15.50;;;5.40;;
5742;SDS011;2896;53.500;10.020;2022-08-01T07:00:18;12.10;;;4.90;;
5742;SDS011;2896;53.500;10.020;2022-08-01T07:02:47;26.07;;;4.93;;
5742;SDS011;2896;53.500;10.020;2022-08-01T07:05:15;7.63;;;4.87;;
5742;SDS011;2896;53.500;10.020;2022-08-01T07:07:42;7.17;;;4.80;;
5742;SDS011;2896;53.500;10.020;2022-08-01T07:10:08;5.90;;;4.10;;
5742;SDS011;2896;53.500;10.020;2022-08-01T07:12:36;6.23;;;3.90;;
5742;SDS011;2896;53.500;10.020;2022-08-01T07:15:03;8.17;;;3.87;;
5742;SDS011;2896;53.500;10.020;2022-08-01T07:17:30;5.23;;;3.73;;
5742;SDS011;2896;53.500;10.020;2022-08-01T07:19:57;5.93;;;3.50;;
5742;SDS011;2896;53.500;10.020;2022-08-01T07:22:25;3.80;;;2.90;;
5742;SDS011;2896;53.500;10.020;2022-08-01T07:24:51;15.70;;;3.50;;
5742;SDS011;2896;53.500;10.020;2022-08-01T07:27:18;7.00;;;3.97;;
5742;SDS011;2896;53.500;10.020;2022-08-01T07:29:44;7.00;;;3.53;;
5742;SDS011;2896;53.500;10.020;2022-08-01T07:32:11;11.93;;;4.90;;
5742;SDS011;2896;53.500;10.020;2022-08-01T07:34:38;12.80;;;5.60;;
5742;SDS011;2896;53.500;10.020;2022-08-01T07:37:04;9.10;;;5.23;;
5742;SDS011;2896;53.500;10.020;2022-08-01T07:39:32;20.20;;;5.90;;
5742;SDS011;2896;53.500;10.020;2022-08-01T07:41:59;11.53;;;6.27;;
5742;SDS011;2896;53.500;10.020;2022-08-01T07:44:25;20.37;;;6.93;;
5742;SDS011;2896;53.500;10.020;2022-08-01T07:46:52;16.57;;;6.13;;
5742;SDS011;2896;53.500;10.020;2022-08-01T07:49:19;24.33;;;6.87;;
5742;SDS011;2896;53.500;10.020;2022-08-01T07:51:46;15.10;;;6.30;;
5742;SDS011;2896;53.500;10.020;2022-08-01T07:54:13;15.37;;;5.70;;
5742;SDS011;2896;53.500;10.020;2022-08-01T07:56:41;24.40;;;6.63;;
5742;SDS011;2896;53.500;10.020;2022-08-01T07:59:08;17.57;;;6.07;;
5742;SDS011;2896;53.500;10.020;2022-08-01T08:01:34;11.17;;;5.97;;
5742;SDS011;2896;53.500;10.020;2022-08-01T08:04:01;20.70;;;5.80;;
5742;SDS011;2896;53.500;10.020;2022-08-01T08:06:28;17.87;;;6.30;;
5742;SDS011;2896;53.500;10.020;2022-08-01T08:08:55;22.47;;;5.20;;
5742;SDS011;2896;53.500;10.020;2022-08-01T08:11:21;20.43;;;6.33;;
5742;SDS011;2896;53.500;10.020;2022-08-01T08:13:49;17.93;;;4.30;;
5742;SDS011;2896;53.500;10.020;2022-08-01T08:16:16;13.10;;;4.00;;
5742;SDS011;2896;53.500;10.020;2022-08-01T08:18:42;22.90;;;4.43;;
5742;SDS011;2896;53.500;10.020;2022-08-01T08:21:09;21.03;;;4.30;;
5742;SDS011;2896;53.500;10.020;2022-08-01T08:23:36;10.53;;;3.70;;
5742;SDS011;2896;53.500;10.020;2022-08-01T08:26:20;12.23;;;3.87;;
5742;SDS011;2896;53.500;10.020;2022-08-01T08:28:49;22.17;;;3.63;;
5742;SDS011;2896;53.500;10.020;2022-08-01T08:31:16;16.07;;;2.93;;
5742;SDS011;2896;53.500;10.020;2022-08-01T08:33:42;9.63;;;2.73;;
5742;SDS011;2896;53.500;10.020;2022-08-01T08:36:09;7.80;;;3.23;;
5742;SDS011;2896;53.500;10.020;2022-08-01T08:38:36;7.70;;;2.80;;
5742;SDS011;2896;53.500;10.020;2022-08-01T08:41:03;13.47;;;3.20;;
5742;SDS011;2896;53.500;10.020;2022-08-01T08:43:29;7.43;;;3.13;;
5742;SDS011;2896;53.500;10.020;2022-08-01T08:45:57;7.73;;;2.40;;
5742;SDS011;2896;53.500;10.020;2022-08-01T08:48:24;6.17;;;2.40;;
5742;SDS011;2896;53.500;10.020;2022-08-01T08:50:51;7.50;;;2.30;;
5742;SDS011;2896;53.500;10.020;2022-08-01T08:53:18;11.97;;;2.73;;
5742;SDS011;2896;53.500;10.020;2022-08-01T08:55:45;4.97;;;2.37;;
5742;SDS011;2896;53.500;10.020;2022-08-01T08:58:12;13.23;;;2.70;;
5742;SDS011;2896;53.500;10.020;2022-08-01T09:00:40;13.63;;;3.77;;
5742;SDS011;2896;53.500;10.020;2022-08-01T09:03:09;7.80;;;2.80;;
5742;SDS011;2896;53.500;10.020;2022-08-01T09:05:36;5.70;;;2.20;;
5742;SDS011;2896;53.500;10.020;2022-08-01T09:08:06;15.23;;;3.60;;
5742;SDS011;2896;53.500;10.020;2022-08-01T09:10:32;14.60;;;2.70;;
5742;SDS011;2896;53.500;10.020;2022-08-01T09:13:03;15.13;;;2.37;;
5742;SDS011;2896;53.500;10.020;2022-08-01T09:15:39;15.93;;;3.07;;
5742;SDS011;2896;53.500;10.020;2022-08-01T09:18:06;6.03;;;2.13;;
5742;SDS011;2896;53.500;10.020;2022-08-01T09:20:35;11.00;;;2.50;;
5742;SDS011;2896;53.500;10.020;2022-08-01T09:23:01;11.87;;;2.70;;
5742;SDS011;2896;53.500;10.020;2022-08-01T09:25:28;8.27;;;2.97;;
5742;SDS011;2896;53.500;10.020;2022-08-01T09:28:02;8.33;;;2.67;;
5742;SDS011;2896;53.500;10.020;2022-08-01T09:30:36;5.00;;;2.10;;
5742;SDS011;2896;53.500;10.020;2022-08-01T09:33:04;6.67;;;2.30;;
5742;SDS011;2896;53.500;10.020;2022-08-01T09:35:32;15.90;;;2.93;;
5742;SDS011;2896;53.500;10.020;2022-08-01T09:38:12;11.07;;;2.80;;
5742;SDS011;2896;53.500;10.020;2022-08-01T09:40:47;16.40;;;2.87;;
5742;SDS011;2896;53.500;10.020;2022-08-01T09:43:15;14.37;;;3.37;;
5742;SDS011;2896;53.500;10.020;2022-08-01T09:45:43;9.63;;;3.20;;
5742;SDS011;2896;53.500;10.020;2022-08-01T09:48:10;12.30;;;3.50;;
5742;SDS011;2896;53.500;10.020;2022-08-01T09:50:41;24.93;;;4.57;;
5742;SDS011;2896;53.500;10.020;2022-08-01T09:53:08;17.20;;;3.80;;
5742;SDS011;2896;53.500;10.020;2022-08-01T09:55:36;19.53;;;3.87;;
5742;SDS011;2896;53.500;10.020;2022-08-01T09:58:03;18.27;;;3.80;;
5742;SDS011;2896;53.500;10.020;2022-08-01T10:00:30;14.23;;;3.53;;
5742;SDS011;2896;53.500;10.020;2022-08-01T10:02:57;14.63;;;3.63;;
5742;SDS011;2896;53.500;10.020;2022-08-01T10:05:30;10.47;;;3.27;;
5742;SDS011;2896;53.500;10.020;2022-08-01T10:07:58;12.00;;;3.30;;
5742;SDS011;2896;53.500;10.020;2022-08-01T10:10:27;11.80;;;3.57;;
5742;SDS011;2896;53.500;10.020;2022-08-01T10:12:55;14.40;;;4.00;;
5742;SDS011;2896;53.500;10.020;2022-08-01T10:15:23;14.43;;;3.67;;
5742;SDS011;2896;53.500;10.020;2022-08-01T10:17:52;8.57;;;3.30;;
5742;SDS011;2896;53.500;10.020;2022-08-01T10:20:21;13.10;;;3.80;;
5742;SDS011;2896;53.500;10.020;2022-08-01T10:22:51;13.30;;;3.57;;
5742;SDS011;2896;53.500;10.020;2022-08-01T10:25:19;18.60;;;4.30;;
5742;SDS011;2896;53.500;10.020;2022-08-01T10:27:47;16.70;;;3.87;;
5742;SDS011;2896;53.500;10.020;2022-08-01T10:30:16;6.77;;;2.97;;
5742;SDS011;2896;53.500;10.020;2022-08-01T10:32:43;9.77;;;2.97;;
5742;SDS011;2896;53.500;10.020;2022-08-01T10:35:12;11.97;;;3.20;;
5742;SDS011;2896;53.500;10.020;2022-08-01T10:37:42;7.30;;;3.10;;
5742;SDS011;2896;53.500;10.020;2022-08-01T10:40:11;13.10;;;3.47;;
5742;SDS011;2896;53.500;10.020;2022-08-01T10:42:39;16.43;;;2.77;;
5742;SDS011;2896;53.500;10.020;2022-08-01T10:45:06;10.60;;;3.17;;
5742;SDS011;2896;53.500;10.020;2022-08-01T10:47:38;5.83;;;2.43;;
5742;SDS011;2896;53.500;10.020;2022-08-01T10:50:11;11.37;;;2.60;;
5742;SDS011;2896;53.500;10.020;2022-08-01T10:52:41;9.00;;;2.57;;
5742;SDS011;2896;53.500;10.020;2022-08-01T10:55:28;14.07;;;3.00;;
5742;SDS011;2896;53.500;10.020;2022-08-01T10:58:10;6.33;;;2.30;;
5742;SDS011;2896;53.500;10.020;2022-08-01T11:00:37;9.87;;;2.70;;
5742;SDS011;2896;53.500;10.020;2022-08-01T11:03:05;11.73;;;2.50;;
5742;SDS011;2896;53.500;10.020;2022-08-01T11:05:32;5.30;;;2.47;;
5742;SDS011;2896;53.500;10.020;2022-08-01T11:08:00;16.07;;;2.97;;
5742;SDS011;2896;53.500;10.020;2022-08-01T11:10:30;8.77;;;2.10;;
5742;SDS011;2896;53.500;10.020;2022-08-01T11:13:03;9.20;;;2.40;;
5742;SDS011;2896;53.500;10.020;2022-08-01T11:15:32;9.00;;;2.33;;
5742;SDS011;2896;53.500;10.020;2022-08-01T11:18:02;8.63;;;2.07;;
5742;SDS011;2896;53.500;10.020;2022-08-01T11:20:56;9.30;;;2.63;;
5742;SDS011;2896;53.500;10.020;2022-08-01T11:23:24;13.43;;;3.70;;
5742;SDS011;2896;53.500;10.020;2022-08-01T11:26:08;15.20;;;3.43;;
5742;SDS011;2896;53.500;10.020;2022-08-01T11:28:36;8.13;;;2.53;;
5742;SDS011;2896;53.500;10.020;2022-08-01T11:33:56;8.27;;;2.30;;
5742;SDS011;2896;53.500;10.020;2022-08-01T11:36:25;7.63;;;2.40;;
5742;SDS011;2896;53.500;10.020;2022-08-01T11:39:11;9.67;;;2.30;;
5742;SDS011;2896;53.500;10.020;2022-08-01T11:41:40;9.43;;;2.80;;
5742;SDS011;2896;53.500;10.020;2022-08-01T11:44:08;10.17;;;2.80;;
5742;SDS011;2896;53.500;10.020;2022-08-01T11:46:46;12.30;;;2.90;;
5742;SDS011;2896;53.500;10.020;2022-08-01T11:49:30;8.50;;;2.97;;
5742;SDS011;2896;53.500;10.020;2022-08-01T11:52:05;10.63;;;3.60;;
5742;SDS011;2896;53.500;10.020;2022-08-01T11:54:34;8.50;;;2.80;;
5742;SDS011;2896;53.500;10.020;2022-08-01T11:57:03;9.00;;;2.53;;
5742;SDS011;2896;53.500;10.020;2022-08-01T11:59:35;14.20;;;2.10;;
5742;SDS011;2896;53.500;10.020;2022-08-01T12:02:04;9.53;;;2.40;;
5742;SDS011;2896;53.500;10.020;2022-08-01T12:04:45;13.13;;;2.43;;
5742;SDS011;2896;53.500;10.020;2022-08-01T12:07:14;15.17;;;2.90;;
5742;SDS011;2896;53.500;10.020;2022-08-01T12:09:41;6.10;;;2.20;;
5742;SDS011;2896;53.500;10.020;2022-08-01T12:12:08;9.63;;;2.40;;
5742;SDS011;2896;53.500;10.020;2022-08-01T12:14:35;9.20;;;2.70;;
5742;SDS011;2896;53.500;10.020;2022-08-01T12:17:02;13.40;;;2.80;;
5742;SDS011;2896;53.500;10.020;2022-08-01T12:19:29;11.13;;;2.60;;
5742;SDS011;2896;53.500;10.020;2022-08-01T12:22:09;23.80;;;3.27;;
5742;SDS011;2896;53.500;10.020;2022-08-01T12:24:38;11.67;;;2.40;;
5742;SDS011;2896;53.500;10.020;2022-08-01T12:27:06;10.60;;;2.87;;
5742;SDS011;2896;53.500;10.020;2022-08-01T12:29:35;11.83;;;3.30;;
5742;SDS011;2896;53.500;10.020;2022-08-01T12:32:03;9.70;;;3.20;;
5742;SDS011;2896;53.500;10.020;2022-08-01T12:34:31;6.93;;;2.40;;
5742;SDS011;2896;53.500;10.020;2022-08-01T12:37:00;7.10;;;2.10;;
5742;SDS011;2896;53.500;10.020;2022-08-01T12:39:34;10.33;;;3.37;;
5742;SDS011;2896;53.500;10.020;2022-08-01T12:42:02;10.27;;;2.17;;
5742;SDS011;2896;53.500;10.020;2022-08-01T12:44:32;9.40;;;2.20;;
5742;SDS011;2896;53.500;10.020;2022-08-01T12:47:00;10.13;;;2.10;;
5742;SDS011;2896;53.500;10.020;2022-08-01T12:49:28;13.77;;;2.00;;
5742;SDS011;2896;53.500;10.020;2022-08-01T12:51:55;8.47;;;2.40;;
5742;SDS011;2896;53.500;10.020;2022-08-01T12:54:22;6.60;;;1.93;;
5742;SDS011;2896;53.500;10.020;2022-08-01T12:56:50;9.20;;;2.37;;
5742;SDS011;2896;53.500;10.020;2022-08-01T12:59:23;8.53;;;2.30;;
5742;SDS011;2896;53.500;10.020;2022-08-01T13:01:51;13.03;;;2.20;;
5742;SDS011;2896;53.500;10.020;2022-08-01T13:04:19;8.57;;;2.30;;
5742;SDS011;2896;53.500;10.020;2022-08-01T13:06:46;9.90;;;2.60;;
5742;SDS011;2896;53.500;10.020;2022-08-01T13:09:13;5.70;;;2.43;;
5742;SDS011;2896;53.500;10.020;2022-08-01T13:11:40;8.80;;;1.97;;
5742;SDS011;2896;53.500;10.020;2022-08-01T13:14:08;6.37;;;1.80;;
5742;SDS011;2896;53.500;10.020;2022-08-01T13:16:46;9.70;;;2.03;;
5742;SDS011;2896;53.500;10.020;2022-08-01T13:19:13;4.87;;;2.30;;
5742;SDS011;2896;53.500;10.020;2022-08-01T13:21:40;9.70;;;1.70;;
5742;SDS011;2896;53.500;10.020;2022-08-01T13:24:23;15.80;;;1.97;;
5742;SDS011;2896;53.500;10.020;2022-08-01T13:26:52;10.90;;;2.40;;
5742;SDS011;2896;53.500;10.020;2022-08-01T13:29:28;5.60;;;2.17;;
5742;SDS011;2896;53.500;10.020;2022-08-01T13:31:57;12.73;;;2.17;;
5742;SDS011;2896;53.500;10.020;2022-08-01T13:34:32;5.60;;;1.90;;
5742;SDS011;2896;53.500;10.020;2022-08-01T13:36:59;6.03;;;1.83;;
5742;SDS011;2896;53.500;10.020;2022-08-01T13:39:27;3.10;;;1.90;;
5742;SDS011;2896;53.500;10.020;2022-08-01T13:42:05;4.70;;;2.00;;
5742;SDS011;2896;53.500;10.020;2022-08-01T13:44:32;9.33;;;1.63;;
5742;SDS011;2896;53.500;10.020;2022-08-01T13:47:00;11.53;;;2.07;;
5742;SDS011;2896;53.500;10.020;2022-08-01T13:49:27;5.00;;;2.13;;
5742;SDS011;2896;53.500;10.020;2022-08-01T13:51:54;6.87;;;1.83;;
5742;SDS011;2896;53.500;10.020;2022-08-01T13:54:21;5.10;;;2.00;;
5742;SDS011;2896;53.500;10.020;2022-08-01T13:56:48;4.53;;;2.27;;
5742;SDS011;2896;53.500;10.020;2022-08-01T13:59:15;5.67;;;2.00;;
5742;SDS011;2896;53.500;10.020;2022-08-01T14:01:41;6.10;;;2.20;;
5742;SDS011;2896;53.500;10.020;2022-08-01T14:04:10;8.90;;;2.13;;
5742;SDS011;2896;53.500;10.020;2022-08-01T14:06:36;7.33;;;2.30;;
5742;SDS011;2896;53.500;10.020;2022-08-01T14:09:03;4.60;;;1.80;;
5742;SDS011;2896;53.500;10.020;2022-08-01T14:11:31;8.47;;;1.80;;
5742;SDS011;2896;53.500;10.020;2022-08-01T14:13:58;10.23;;;1.70;;
5742;SDS011;2896;53.500;10.020;2022-08-01T14:16:25;5.80;;;1.80;;
5742;SDS011;2896;53.500;10.020;2022-08-01T14:18:52;7.97;;;1.77;;
5742;SDS011;2896;53.500;10.020;2022-08-01T14:21:20;9.67;;;2.40;;
5742;SDS011;2896;53.500;10.020;2022-08-01T14:23:46;6.23;;;1.87;;
5742;SDS011;2896;53.500;10.020;2022-08-01T14:26:13;7.30;;;2.13;;
5742;SDS011;2896;53.500;10.020;2022-08-01T14:28:40;3.53;;;2.10;;
5742;SDS011;2896;53.500;10.020;2022-08-01T14:31:06;4.80;;;1.77;;
5742;SDS011;2896;53.500;10.020;2022-08-01T14:33:33;4.80;;;1.97;;
5742;SDS011;2896;53.500;10.020;2022-08-01T14:36:00;7.20;;;1.83;;
5742;SDS011;2896;53.500;10.020;2022-08-01T14:38:28;6.27;;;1.77;;
5742;SDS011;2896;53.500;10.020;2022-08-01T14:40:55;5.90;;;2.00;;
5742;SDS011;2896;53.500;10.020;2022-08-01T14:43:21;3.87;;;1.50;;
5742;SDS011;2896;53.500;10.020;2022-08-01T14:45:48;7.40;;;1.70;;
5742;SDS011;2896;53.500;10.020;2022-08-01T14:48:17;13.13;;;2.37;;
5742;SDS011;2896;53.500;10.020;2022-08-01T14:50:44;5.43;;;1.73;;
5742;SDS011;2896;53.500;10.020;2022-08-01T14:53:11;7.00;;;1.97;;
5742;SDS011;2896;53.500;10.020;2022-08-01T14:55:39;13.20;;;2.17;;
5742;SDS011;2896;53.500;10.020;2022-08-01T14:58:05;3.20;;;1.60;;
5742;SDS011;2896;53.500;10.020;2022-08-01T15:00:32;6.00;;;2.47;;
5742;SDS011;2896;53.500;10.020;2022-08-01T15:02:59;10.13;;;2.53;;